Terminal Aerodrome Forecast
Issued by NWS

Home | Current Version | Previous Version | Text Only | Print | Product List | Glossary On
Versions: 1 2 3 4 5 6 7 8 9 10 11 12 13
791
FTUS45 KTFX 300520
TAFHVR
TAF
KHVR 300520Z 3006/0106 22008KT P6SM SCT090 BKN180
     FM301000 23011KT P6SM VCSH SCT040 OVC070
      TEMPO 3011/3015 -SHRA BKN040
     FM301800 27020G28KT P6SM VCSH SCT035 OVC060 PROB30 3021/0103
      -SHRA BKN035=

USA.gov is the U.S. government's official web portal to all federal, state and local government web resources and services.